createdAt,value
2023-03-12T00:00:21.728Z,55.61
2023-03-12T00:01:24.782Z,55.64
2023-03-12T00:02:26.695Z,56.43
2023-03-12T00:03:28.566Z,56.35
2023-03-12T00:04:31.665Z,56.34
2023-03-12T00:05:33.580Z,55.84
2023-03-12T00:06:35.330Z,55.88
2023-03-12T00:07:37.100Z,55.78
2023-03-12T00:08:39.525Z,56.25
2023-03-12T00:09:41.299Z,56.26
2023-03-12T00:10:43.168Z,56.86
2023-03-12T00:11:44.958Z,56.80
2023-03-12T00:12:46.952Z,56.74
2023-03-12T00:13:52.080Z,56.94
2023-03-12T00:14:53.871Z,56.82
2023-03-12T00:15:55.734Z,56.95
2023-03-12T00:16:57.625Z,57.10
2023-03-12T00:17:59.431Z,57.14
2023-03-12T00:19:01.633Z,57.58
2023-03-12T00:20:03.909Z,57.08
2023-03-12T00:21:06.295Z,57.00
2023-03-12T00:22:08.119Z,56.97
2023-03-12T00:23:09.927Z,57.27
2023-03-12T00:24:11.796Z,57.10
2023-03-12T00:25:15.361Z,56.89
2023-03-12T00:26:17.973Z,57.23
2023-03-12T00:27:20.263Z,57.11
2023-03-12T00:28:22.104Z,57.43
2023-03-12T00:29:23.889Z,57.70
2023-03-12T00:30:28.856Z,57.38
2023-03-12T00:31:33.078Z,57.36
2023-03-12T00:32:35.583Z,56.93
2023-03-12T00:33:37.443Z,57.13
2023-03-12T00:34:39.275Z,57.76
2023-03-12T00:35:41.171Z,57.74
2023-03-12T00:36:43.103Z,57.50
2023-03-12T00:37:44.961Z,57.65
2023-03-12T00:38:46.808Z,57.74
2023-03-12T00:39:48.663Z,57.89
2023-03-12T00:40:50.516Z,58.72
2023-03-12T00:41:52.366Z,58.01
2023-03-12T00:42:54.124Z,58.92
2023-03-12T00:43:56.292Z,58.94
2023-03-12T00:44:58.074Z,59.41
2023-03-12T00:45:59.827Z,58.78
2023-03-12T00:47:01.782Z,59.19
2023-03-12T00:48:03.989Z,59.32
2023-03-12T00:49:05.764Z,59.04
2023-03-12T00:50:07.728Z,59.21
2023-03-12T00:51:09.649Z,59.28
2023-03-12T00:52:11.755Z,59.77
2023-03-12T00:53:13.500Z,58.87
2023-03-12T00:54:15.312Z,59.14
2023-03-12T00:55:17.204Z,59.04
2023-03-12T00:56:19.028Z,58.38
2023-03-12T00:57:20.933Z,58.54
2023-03-12T00:58:22.770Z,59.17
2023-03-12T00:59:24.592Z,58.82
2023-03-12T01:00:26.481Z,58.39
2023-03-12T01:01:28.481Z,59.08
2023-03-12T01:02:30.352Z,59.07
2023-03-12T01:03:32.153Z,58.80
2023-03-12T01:04:33.995Z,59.25
2023-03-12T01:05:38.138Z,59.05
2023-03-12T01:06:39.936Z,58.80
2023-03-12T01:07:42.016Z,58.41
2023-03-12T01:08:43.989Z,59.33
2023-03-12T01:09:45.752Z,59.10
2023-03-12T01:10:47.572Z,59.44
2023-03-12T01:11:49.521Z,59.12
2023-03-12T01:12:51.392Z,58.98
2023-03-12T01:13:53.305Z,58.56
2023-03-12T01:14:55.135Z,58.95
2023-03-12T01:15:56.946Z,58.85
2023-03-12T01:16:58.753Z,59.20
2023-03-12T01:18:00.609Z,58.94
2023-03-12T01:19:02.879Z,59.02
2023-03-12T01:20:06.132Z,59.46
2023-03-12T01:21:07.937Z,59.19
2023-03-12T01:22:09.823Z,58.91
2023-03-12T01:23:11.719Z,59.24
2023-03-12T01:24:13.548Z,58.50
2023-03-12T01:25:15.950Z,58.64
2023-03-12T01:26:17.847Z,58.85
2023-03-12T01:27:20.629Z,58.70
2023-03-12T01:28:23.558Z,58.46
2023-03-12T01:29:25.419Z,58.69
2023-03-12T01:30:27.827Z,58.48
2023-03-12T01:31:29.616Z,58.76
2023-03-12T01:32:31.456Z,59.38
2023-03-12T01:33:33.259Z,58.52
2023-03-12T01:34:35.751Z,58.50
2023-03-12T01:35:39.685Z,58.38
2023-03-12T01:36:42.136Z,58.90
2023-03-12T01:37:43.915Z,58.52
2023-03-12T01:38:46.161Z,58.72
2023-03-12T01:39:47.921Z,59.10
2023-03-12T01:40:49.776Z,58.69
2023-03-12T01:41:51.609Z,58.65
2023-03-12T01:42:54.026Z,59.30
2023-03-12T01:43:55.888Z,58.50
2023-03-12T01:45:02.279Z,58.32
2023-03-12T01:46:04.133Z,58.42
2023-03-12T01:47:05.998Z,59.20
2023-03-12T01:48:07.814Z,58.64
2023-03-12T01:49:09.581Z,59.14
2023-03-12T01:50:11.422Z,58.73
2023-03-12T01:51:14.757Z,59.25
2023-03-12T01:52:21.288Z,59.55
2023-03-12T01:53:23.535Z,59.70
2023-03-12T01:54:25.347Z,59.69
2023-03-12T01:55:27.185Z,59.09
2023-03-12T01:56:32.563Z,59.45
2023-03-12T01:57:40.452Z,59.13
2023-03-12T01:58:44.360Z,59.44
2023-03-12T01:59:47.695Z,59.74
2023-03-12T02:00:49.466Z,59.16
2023-03-12T02:01:51.807Z,59.19
2023-03-12T02:02:54.950Z,60.37
2023-03-12T02:03:59.555Z,60.21
2023-03-12T02:05:09.639Z,60.22
2023-03-12T02:06:16.151Z,60.51
2023-03-12T02:07:18.315Z,60.20
2023-03-12T02:08:20.045Z,60.02
2023-03-12T02:09:23.425Z,60.25
2023-03-12T02:10:25.831Z,60.72
2023-03-12T02:11:27.752Z,60.29
2023-03-12T02:12:29.651Z,60.36
2023-03-12T02:13:31.498Z,60.72
2023-03-12T02:14:33.485Z,60.00
2023-03-12T02:15:36.151Z,60.59
2023-03-12T02:16:37.944Z,60.32
2023-03-12T02:17:40.809Z,60.90
2023-03-12T02:18:43.454Z,60.86
2023-03-12T02:19:54.423Z,60.23
2023-03-12T02:21:10.628Z,61.33
2023-03-12T02:22:13.554Z,60.54
2023-03-12T02:23:18.331Z,60.65
2023-03-12T02:24:29.337Z,60.67
2023-03-12T02:25:36.163Z,61.30
2023-03-12T02:26:38.682Z,61.36
2023-03-12T02:27:40.653Z,61.57
2023-03-12T02:28:44.450Z,60.62
2023-03-12T02:29:46.404Z,60.22
2023-03-12T02:30:49.432Z,60.51
2023-03-12T02:31:53.247Z,59.60
2023-03-12T02:32:55.415Z,60.59
2023-03-12T02:33:58.491Z,60.81
2023-03-12T02:35:00.833Z,60.22
2023-03-12T02:36:02.837Z,60.35
2023-03-12T02:37:04.725Z,60.74
2023-03-12T02:38:26.386Z,60.56
2023-03-12T02:39:28.728Z,60.18
2023-03-12T02:40:43.781Z,60.06
2023-03-12T02:41:48.671Z,60.14
2023-03-12T02:42:50.734Z,60.71
2023-03-12T02:43:58.228Z,60.81
2023-03-12T02:45:00.721Z,60.52
2023-03-12T02:46:02.583Z,60.43
2023-03-12T02:47:05.899Z,59.97
2023-03-12T02:48:09.465Z,60.17
2023-03-12T02:49:13.568Z,60.43
2023-03-12T02:50:15.896Z,60.31
2023-03-12T02:51:17.770Z,60.21
2023-03-12T02:52:19.600Z,60.03
2023-03-12T02:53:21.447Z,60.01
2023-03-12T02:54:23.568Z,60.03
2023-03-12T02:55:25.391Z,60.54
2023-03-12T02:56:28.117Z,60.34
2023-03-12T02:57:30.039Z,60.73
2023-03-12T02:58:31.877Z,59.99
2023-03-12T02:59:33.738Z,60.35
2023-03-12T03:00:35.643Z,60.24
2023-03-12T03:01:37.537Z,60.35
2023-03-12T03:02:39.888Z,61.12
2023-03-12T03:03:41.721Z,61.13
2023-03-12T03:04:43.458Z,60.89
2023-03-12T03:05:45.244Z,60.89
2023-03-12T03:06:48.614Z,61.38
2023-03-12T03:07:50.480Z,61.08
2023-03-12T03:08:52.430Z,60.92
2023-03-12T03:09:54.262Z,60.83
2023-03-12T03:10:56.234Z,60.60
2023-03-12T03:11:58.074Z,60.46
2023-03-12T03:13:00.047Z,60.27
2023-03-12T03:14:04.323Z,60.54
2023-03-12T03:15:06.580Z,60.71
2023-03-12T03:16:08.376Z,61.18
2023-03-12T03:17:10.210Z,60.95
2023-03-12T03:18:12.055Z,61.00
2023-03-12T03:19:13.999Z,61.47
2023-03-12T03:20:15.955Z,60.63
2023-03-12T03:21:18.207Z,61.09
2023-03-12T03:22:21.327Z,60.69
2023-03-12T03:23:23.221Z,60.38
2023-03-12T03:24:25.053Z,60.91
2023-03-12T03:25:26.900Z,60.33
2023-03-12T03:26:28.767Z,60.68
2023-03-12T03:27:30.638Z,60.13
2023-03-12T03:28:32.509Z,60.28
2023-03-12T03:29:34.573Z,60.45
2023-03-12T03:30:39.031Z,60.97
2023-03-12T03:31:40.896Z,61.48
2023-03-12T03:32:43.049Z,61.75
2023-03-12T03:33:45.540Z,61.66
2023-03-12T03:34:47.432Z,61.33
2023-03-12T03:35:49.722Z,61.04
2023-03-12T03:36:51.554Z,60.59
2023-03-12T03:37:53.343Z,60.71
2023-03-12T03:38:55.226Z,60.66
2023-03-12T03:39:57.005Z,61.21
2023-03-12T03:40:59.117Z,61.13
2023-03-12T03:42:00.969Z,61.13
2023-03-12T03:43:02.786Z,61.63
2023-03-12T03:44:05.589Z,61.15
2023-03-12T03:45:07.891Z,60.16
2023-03-12T03:46:11.059Z,60.94
2023-03-12T03:47:12.897Z,60.86
2023-03-12T03:48:15.266Z,60.22
2023-03-12T03:49:17.373Z,60.85
2023-03-12T03:50:19.325Z,60.90
2023-03-12T03:51:21.105Z,61.44
2023-03-12T03:52:23.005Z,60.85
2023-03-12T03:53:24.823Z,61.07
2023-03-12T03:54:26.729Z,61.18
2023-03-12T03:55:28.487Z,60.86
2023-03-12T03:56:30.360Z,60.65
2023-03-12T03:57:32.244Z,60.83
2023-03-12T03:58:34.067Z,61.09
2023-03-12T03:59:36.127Z,61.05
2023-03-12T04:00:37.963Z,61.38
2023-03-12T04:01:39.748Z,61.69
2023-03-12T04:02:41.560Z,61.53
2023-03-12T04:03:43.420Z,61.63
2023-03-12T04:04:45.309Z,62.30
2023-03-12T04:05:47.208Z,62.20
2023-03-12T04:06:49.031Z,62.72
2023-03-12T04:07:52.861Z,62.38
2023-03-12T04:08:54.763Z,62.43
2023-03-12T04:09:57.872Z,62.13
2023-03-12T04:10:59.750Z,62.85
2023-03-12T04:12:01.518Z,62.73
2023-03-12T04:13:03.445Z,62.49
2023-03-12T04:14:05.310Z,62.20
2023-03-12T04:15:07.412Z,62.42
2023-03-12T04:16:09.481Z,62.65
2023-03-12T04:17:11.377Z,62.96
2023-03-12T04:18:13.233Z,63.62
2023-03-12T04:19:15.123Z,63.10
2023-03-12T04:20:17.088Z,63.58
2023-03-12T04:21:19.038Z,62.98
2023-03-12T04:22:20.884Z,63.34
2023-03-12T04:23:22.812Z,63.59
2023-03-12T04:24:24.581Z,63.03
2023-03-12T04:25:26.512Z,62.38
2023-03-12T04:26:28.352Z,62.98
2023-03-12T04:27:30.258Z,62.69
2023-03-12T04:28:32.289Z,61.65
2023-03-12T04:29:34.180Z,62.41
2023-03-12T04:30:38.424Z,62.57
2023-03-12T04:31:40.288Z,62.83
2023-03-12T04:32:42.284Z,62.16
2023-03-12T04:33:44.079Z,61.88
2023-03-12T04:34:45.968Z,62.47
2023-03-12T04:35:52.247Z,63.18
2023-03-12T04:36:54.035Z,62.37
2023-03-12T04:37:55.875Z,63.08
2023-03-12T04:38:57.759Z,62.23
2023-03-12T04:39:59.542Z,63.02
2023-03-12T04:41:08.935Z,62.20
2023-03-12T04:42:11.118Z,63.15
2023-03-12T04:43:13.125Z,63.15
2023-03-12T04:44:15.287Z,63.08
2023-03-12T04:45:17.300Z,62.37
2023-03-12T04:46:19.288Z,62.60
2023-03-12T04:47:21.247Z,62.39
2023-03-12T04:48:23.223Z,62.06
2023-03-12T04:49:25.104Z,62.61
2023-03-12T04:50:26.921Z,62.14
2023-03-12T04:51:29.924Z,62.85
2023-03-12T04:52:31.707Z,62.34
2023-03-12T04:53:34.019Z,63.04
2023-03-12T04:54:35.852Z,63.11
2023-03-12T04:55:37.659Z,63.53
2023-03-12T04:56:39.566Z,63.08
2023-03-12T04:57:41.412Z,62.20
2023-03-12T04:58:43.214Z,63.04
2023-03-12T04:59:45.100Z,63.60
2023-03-12T05:00:47.481Z,63.67
2023-03-12T05:01:49.346Z,62.64
2023-03-12T05:02:51.077Z,62.79
2023-03-12T05:03:53.701Z,62.69
2023-03-12T05:04:56.937Z,62.91
2023-03-12T05:05:59.040Z,62.23
2023-03-12T05:07:00.826Z,63.17
2023-03-12T05:08:03.376Z,63.48
2023-03-12T05:09:05.377Z,63.41
2023-03-12T05:10:07.699Z,64.10
2023-03-12T05:11:09.544Z,64.35
2023-03-12T05:12:11.389Z,64.40
2023-03-12T05:13:14.263Z,63.48
2023-03-12T05:14:16.119Z,64.19
2023-03-12T05:15:18.090Z,63.53
2023-03-12T05:16:20.392Z,63.20
2023-03-12T05:17:22.335Z,63.25
2023-03-12T05:18:24.123Z,64.43
2023-03-12T05:19:25.941Z,63.74
2023-03-12T05:20:27.771Z,64.40
2023-03-12T05:21:29.592Z,63.77
2023-03-12T05:22:31.452Z,63.36
2023-03-12T05:23:33.680Z,64.47
2023-03-12T05:24:36.230Z,63.27
2023-03-12T05:25:41.658Z,63.99
2023-03-12T05:26:43.801Z,63.51
2023-03-12T05:27:45.872Z,63.56
2023-03-12T05:28:47.767Z,63.86
2023-03-12T05:29:49.740Z,64.34
2023-03-12T05:30:51.556Z,63.03
2023-03-12T05:31:53.556Z,63.99
2023-03-12T05:32:55.553Z,63.96
2023-03-12T05:33:57.385Z,64.06
2023-03-12T05:34:59.217Z,63.69
2023-03-12T05:36:01.081Z,64.27
2023-03-12T05:37:03.031Z,64.61
2023-03-12T05:38:04.835Z,64.39
2023-03-12T05:39:06.760Z,64.37
2023-03-12T05:40:11.084Z,65.12
2023-03-12T05:41:39.376Z,64.20
2023-03-12T05:42:41.308Z,65.93
2023-03-12T05:43:43.383Z,65.16
2023-03-12T05:44:45.151Z,64.66
2023-03-12T05:45:47.510Z,64.75
2023-03-12T05:46:49.359Z,64.09
2023-03-12T05:47:51.122Z,65.10
2023-03-12T05:48:53.711Z,64.51
2023-03-12T05:49:55.502Z,64.61
2023-03-12T05:50:58.146Z,64.60
2023-03-12T05:52:00.157Z,65.12
2023-03-12T05:53:01.917Z,64.46
2023-03-12T05:54:04.082Z,64.45
2023-03-12T05:55:06.174Z,64.03
2023-03-12T05:56:09.376Z,64.88
2023-03-12T05:57:11.115Z,64.67
2023-03-12T05:58:12.912Z,64.22
2023-03-12T05:59:14.770Z,65.10
2023-03-12T06:00:16.985Z,65.20
2023-03-12T06:01:26.846Z,65.34
2023-03-12T06:02:28.720Z,64.99
2023-03-12T06:03:30.726Z,65.02
2023-03-12T06:04:32.688Z,64.58
2023-03-12T06:05:36.307Z,66.04
2023-03-12T06:06:38.239Z,66.11
2023-03-12T06:07:40.028Z,64.77
2023-03-12T06:08:42.321Z,64.96
2023-03-12T06:09:44.138Z,65.47
2023-03-12T06:10:45.906Z,64.81
2023-03-12T06:11:47.808Z,64.96
2023-03-12T06:12:49.590Z,64.34
2023-03-12T06:13:51.368Z,64.46
2023-03-12T06:14:53.192Z,65.11
2023-03-12T06:15:54.965Z,64.44
2023-03-12T06:16:57.042Z,64.48
2023-03-12T06:17:58.853Z,64.85
2023-03-12T06:19:02.239Z,64.98
2023-03-12T06:20:04.188Z,65.19
2023-03-12T06:21:13.451Z,65.70
2023-03-12T06:22:15.331Z,65.47
2023-03-12T06:23:17.511Z,65.34
2023-03-12T06:24:20.044Z,66.14
2023-03-12T06:25:21.894Z,64.95
2023-03-12T06:26:23.952Z,65.91
2023-03-12T06:27:25.905Z,64.92
2023-03-12T06:28:27.735Z,65.47
2023-03-12T06:29:29.655Z,64.43
2023-03-12T06:30:32.387Z,66.16
2023-03-12T06:31:36.579Z,65.27
2023-03-12T06:32:39.876Z,66.01
2023-03-12T06:33:41.810Z,66.02
2023-03-12T06:34:43.556Z,66.89
2023-03-12T06:35:45.911Z,66.02
2023-03-12T06:36:47.731Z,65.78
2023-03-12T06:37:49.507Z,65.66
2023-03-12T06:38:51.339Z,65.57
2023-03-12T06:39:53.263Z,66.49
2023-03-12T06:40:59.078Z,66.34
2023-03-12T06:42:00.900Z,66.94
2023-03-12T06:43:02.712Z,66.37
2023-03-12T06:44:06.434Z,65.42
2023-03-12T06:45:09.283Z,66.79
2023-03-12T06:46:17.057Z,67.06
2023-03-12T06:47:18.847Z,68.10
2023-03-12T06:48:20.689Z,67.04
2023-03-12T06:49:22.749Z,66.91
2023-03-12T06:50:24.567Z,67.47
2023-03-12T06:51:26.448Z,67.16
2023-03-12T06:52:28.276Z,67.47
2023-03-12T06:53:30.182Z,67.74
2023-03-12T06:54:32.475Z,67.60
2023-03-12T06:55:34.345Z,68.51
2023-03-12T06:56:36.244Z,67.56
2023-03-12T06:57:38.103Z,67.50
2023-03-12T06:58:39.916Z,67.71
2023-03-12T06:59:41.790Z,66.77
2023-03-12T07:00:43.694Z,66.37
2023-03-12T07:01:45.629Z,67.33
2023-03-12T07:02:47.461Z,66.46
2023-03-12T07:03:49.488Z,67.26
2023-03-12T07:04:51.379Z,67.18
2023-03-12T07:05:56.003Z,68.30
2023-03-12T07:06:57.918Z,67.11
2023-03-12T07:07:59.793Z,66.85
2023-03-12T07:09:01.662Z,67.64
2023-03-12T07:10:03.579Z,67.38
2023-03-12T07:11:05.365Z,66.85
2023-03-12T07:12:07.356Z,67.36
2023-03-12T07:13:09.356Z,67.37
2023-03-12T07:14:11.815Z,66.68
2023-03-12T07:15:13.718Z,66.40
2023-03-12T07:16:15.550Z,66.27
2023-03-12T07:17:17.441Z,65.97
2023-03-12T07:18:19.342Z,66.47
2023-03-12T07:19:21.170Z,66.61
2023-03-12T07:20:23.015Z,66.20
2023-03-12T07:21:24.858Z,65.38
2023-03-12T07:22:26.717Z,66.03
2023-03-12T07:23:28.844Z,66.16
2023-03-12T07:24:30.709Z,66.16
2023-03-12T07:25:35.195Z,67.21
2023-03-12T07:26:37.116Z,67.50
2023-03-12T07:27:38.976Z,66.81
2023-03-12T07:28:40.854Z,67.99
2023-03-12T07:29:42.793Z,67.67
2023-03-12T07:30:50.545Z,68.97
2023-03-12T07:31:52.360Z,69.48
2023-03-12T07:32:54.318Z,68.59
2023-03-12T07:33:56.895Z,67.74
2023-03-12T07:34:59.240Z,66.70
2023-03-12T07:36:01.442Z,66.37
2023-03-12T07:37:03.575Z,66.02
2023-03-12T07:38:06.045Z,65.62
2023-03-12T07:39:09.497Z,67.14
2023-03-12T07:40:11.561Z,66.85
2023-03-12T07:41:13.411Z,67.12
2023-03-12T07:42:15.296Z,65.62
2023-03-12T07:43:18.624Z,65.71
2023-03-12T07:44:22.381Z,65.18
2023-03-12T07:45:25.056Z,65.40
2023-03-12T07:46:26.928Z,67.10
2023-03-12T07:47:28.811Z,66.67
2023-03-12T07:48:30.688Z,66.53
2023-03-12T07:49:32.518Z,67.51
2023-03-12T07:50:34.833Z,67.35
2023-03-12T07:51:36.641Z,66.86
2023-03-12T07:52:38.475Z,66.12
2023-03-12T07:53:40.325Z,66.18
2023-03-12T07:54:42.275Z,65.03
2023-03-12T07:55:46.307Z,65.17
2023-03-12T07:56:48.357Z,64.02
2023-03-12T07:57:50.385Z,63.81
2023-03-12T07:58:52.768Z,64.28
2023-03-12T07:59:54.646Z,63.00
2023-03-12T08:00:56.971Z,64.14
2023-03-12T08:01:58.918Z,65.09
2023-03-12T08:03:00.955Z,65.09
2023-03-12T08:04:03.201Z,64.69
2023-03-12T08:05:05.500Z,63.53
2023-03-12T08:06:07.705Z,62.56
2023-03-12T08:07:09.634Z,60.80
2023-03-12T08:08:11.635Z,60.52
2023-03-12T08:09:13.495Z,61.86
2023-03-12T08:10:15.346Z,59.95
2023-03-12T08:11:17.288Z,60.08
2023-03-12T08:12:19.151Z,59.87
2023-03-12T08:13:23.257Z,59.76
2023-03-12T08:14:25.263Z,58.82
2023-03-12T08:15:27.039Z,58.74
2023-03-12T08:16:28.871Z,59.77
2023-03-12T08:17:30.717Z,59.34
2023-03-12T08:18:32.580Z,59.73
2023-03-12T08:19:34.366Z,59.56
2023-03-12T08:20:36.714Z,58.82
2023-03-12T08:21:38.480Z,60.16
2023-03-12T08:22:40.832Z,60.56
2023-03-12T08:23:43.045Z,59.97
2023-03-12T08:24:44.939Z,60.29
2023-03-12T08:25:47.728Z,58.21
2023-03-12T08:26:49.655Z,59.89
2023-03-12T08:27:51.489Z,60.32
2023-03-12T08:28:53.331Z,59.39
2023-03-12T08:29:55.293Z,59.13
2023-03-12T08:30:59.248Z,58.64
2023-03-12T08:32:05.352Z,58.45
2023-03-12T08:33:07.425Z,57.10
2023-03-12T08:34:09.383Z,57.33
2023-03-12T08:35:11.210Z,58.16
2023-03-12T08:36:13.534Z,56.96
2023-03-12T08:37:15.352Z,57.48
2023-03-12T08:38:17.816Z,57.52
2023-03-12T08:39:19.621Z,57.40
2023-03-12T08:40:21.487Z,56.45
2023-03-12T08:41:23.295Z,56.38
2023-03-12T08:42:25.127Z,56.55
2023-03-12T08:43:29.328Z,54.98
2023-03-12T08:44:31.916Z,56.78
2023-03-12T08:45:34.383Z,55.68
2023-03-12T08:46:36.303Z,56.35
2023-03-12T08:47:40.202Z,56.16
2023-03-12T08:48:42.088Z,55.01
2023-03-12T08:49:43.925Z,55.68
2023-03-12T08:50:45.781Z,55.20
2023-03-12T08:51:47.611Z,55.15
2023-03-12T08:52:49.415Z,56.31
2023-03-12T08:53:51.228Z,56.01
2023-03-12T08:54:53.159Z,54.98
2023-03-12T08:55:55.510Z,54.63
2023-03-12T08:56:57.412Z,54.98
2023-03-12T08:57:59.220Z,54.98
2023-03-12T08:59:01.025Z,54.50
2023-03-12T09:00:05.816Z,54.68
2023-03-12T09:01:14.280Z,55.17
2023-03-12T09:02:16.163Z,54.63
2023-03-12T09:03:18.433Z,53.71
2023-03-12T09:04:20.317Z,54.30
2023-03-12T09:05:22.756Z,55.34
2023-03-12T09:06:24.802Z,54.42
2023-03-12T09:07:29.461Z,54.71
2023-03-12T09:08:34.198Z,53.51
2023-03-12T09:09:36.107Z,54.55
2023-03-12T09:10:38.465Z,54.53
2023-03-12T09:11:41.162Z,53.66
2023-03-12T09:12:43.196Z,54.01
2023-03-12T09:14:08.507Z,53.12
2023-03-12T09:15:07.513Z,53.77
2023-03-12T09:16:09.353Z,52.15
2023-03-12T09:17:11.215Z,53.73
2023-03-12T09:18:13.138Z,53.38
2023-03-12T09:19:15.059Z,52.30
2023-03-12T09:20:16.921Z,53.50
2023-03-12T09:21:18.821Z,53.49
2023-03-12T09:22:20.787Z,53.76
2023-03-12T09:23:22.758Z,53.61
2023-03-12T09:24:24.821Z,53.26
2023-03-12T09:25:26.757Z,52.57
2023-03-12T09:26:28.781Z,53.30
2023-03-12T09:27:30.661Z,53.50
2023-03-12T09:28:32.444Z,51.97
2023-03-12T09:29:34.319Z,52.37
2023-03-12T09:30:36.231Z,52.45
2023-03-12T09:31:38.155Z,52.29
2023-03-12T09:32:40.105Z,52.76
2023-03-12T09:33:42.201Z,52.34
2023-03-12T09:34:44.037Z,51.47
2023-03-12T09:35:45.934Z,52.75
2023-03-12T09:36:47.917Z,51.32
2023-03-12T09:37:51.557Z,51.34
2023-03-12T09:38:54.355Z,50.63
2023-03-12T09:39:56.202Z,50.37
2023-03-12T09:40:58.294Z,49.86
2023-03-12T09:42:00.102Z,50.64
2023-03-12T09:43:06.809Z,50.21
2023-03-12T09:44:17.890Z,52.12
2023-03-12T09:45:27.219Z,50.14
2023-03-12T09:46:42.012Z,50.20
2023-03-12T09:47:47.961Z,51.04
2023-03-12T09:48:50.657Z,51.78
2023-03-12T09:49:57.359Z,51.24
2023-03-12T09:51:01.811Z,51.65
2023-03-12T09:52:08.501Z,51.88
2023-03-12T09:53:16.333Z,51.22
2023-03-12T09:54:24.212Z,51.48
2023-03-12T09:55:26.627Z,51.58
2023-03-12T09:56:28.787Z,49.56
2023-03-12T09:57:30.648Z,47.93
2023-03-12T09:58:33.253Z,48.23
2023-03-12T09:59:37.166Z,48.05
2023-03-12T10:00:39.208Z,48.01
2023-03-12T10:01:44.582Z,46.58
2023-03-12T10:03:05.236Z,47.89
2023-03-12T10:04:37.714Z,48.24
2023-03-12T10:06:04.272Z,48.35
2023-03-12T10:07:21.121Z,49.79
2023-03-12T10:08:33.837Z,48.78
2023-03-12T10:09:54.605Z,47.00
2023-03-12T10:11:01.276Z,46.58
2023-03-12T10:12:05.853Z,47.55
2023-03-12T10:13:22.983Z,47.51
2023-03-12T10:14:27.468Z,47.51
2023-03-12T10:15:44.729Z,45.71
2023-03-12T10:16:55.243Z,47.28
2023-03-12T10:18:20.500Z,48.50
2023-03-12T10:19:28.378Z,48.51
2023-03-12T10:20:35.726Z,48.53
2023-03-12T10:21:55.433Z,48.51
2023-03-12T10:22:57.398Z,48.91
2023-03-12T10:24:13.508Z,48.37
2023-03-12T10:25:22.346Z,48.84
2023-03-12T10:26:26.293Z,48.64
2023-03-12T10:27:29.409Z,48.90
2023-03-12T10:28:34.715Z,49.20
2023-03-12T10:29:39.900Z,50.61
2023-03-12T10:30:45.078Z,49.22
2023-03-12T10:31:52.923Z,49.46
2023-03-12T10:33:04.687Z,49.28
2023-03-12T10:34:15.570Z,50.11
2023-03-12T10:35:21.734Z,49.58
2023-03-12T10:36:37.112Z,49.06
2023-03-12T10:37:44.254Z,49.70
2023-03-12T10:38:48.704Z,49.49
2023-03-12T10:39:51.493Z,49.60
2023-03-12T10:40:53.453Z,48.97
2023-03-12T10:41:56.091Z,48.68
2023-03-12T10:42:58.082Z,48.87
2023-03-12T10:44:02.668Z,49.43
2023-03-12T10:45:10.550Z,49.55
2023-03-12T10:46:15.362Z,49.71
2023-03-12T10:47:29.442Z,50.73
2023-03-12T10:48:31.346Z,47.62
2023-03-12T10:49:34.935Z,48.14
2023-03-12T10:50:38.044Z,47.38
2023-03-12T10:52:06.440Z,48.23
2023-03-12T10:53:19.615Z,47.45
2023-03-12T10:54:22.752Z,48.56
2023-03-12T10:55:29.944Z,46.23
2023-03-12T10:56:48.117Z,45.35
2023-03-12T10:57:51.023Z,46.91
2023-03-12T10:58:53.635Z,47.02
2023-03-12T11:00:13.257Z,46.84
2023-03-12T11:01:15.109Z,47.65
2023-03-12T11:02:29.930Z,47.60
2023-03-12T11:03:32.298Z,47.39
2023-03-12T11:04:34.315Z,47.41
2023-03-12T11:05:37.206Z,48.76
2023-03-12T11:06:39.599Z,49.36
2023-03-12T11:07:44.366Z,49.96
2023-03-12T11:09:15.859Z,51.04
2023-03-12T11:10:18.730Z,50.69
2023-03-12T11:11:30.923Z,50.83
2023-03-12T11:12:33.163Z,51.92
2023-03-12T11:13:34.899Z,52.15
2023-03-12T11:14:45.727Z,51.64
2023-03-12T11:15:48.188Z,51.20
2023-03-12T11:16:51.054Z,50.88
2023-03-12T11:17:52.908Z,52.99
2023-03-12T11:19:01.601Z,52.79
2023-03-12T11:20:19.303Z,52.73
2023-03-12T11:21:21.300Z,52.92
2023-03-12T11:22:34.241Z,51.70
2023-03-12T11:23:37.606Z,52.38
2023-03-12T11:24:58.906Z,52.22
2023-03-12T11:26:02.335Z,52.83
2023-03-12T11:27:27.121Z,52.36
2023-03-12T11:28:39.753Z,52.93
2023-03-12T11:29:47.330Z,51.92
2023-03-12T11:30:52.463Z,52.11
2023-03-12T11:32:06.190Z,52.23
2023-03-12T11:33:10.139Z,52.86
2023-03-12T11:34:32.195Z,52.19
2023-03-12T11:35:40.072Z,52.80
2023-03-12T11:37:02.246Z,52.85
2023-03-12T11:38:10.870Z,52.36
2023-03-12T11:39:15.542Z,52.42
2023-03-12T11:40:23.090Z,52.60
2023-03-12T11:41:31.611Z,52.34
2023-03-12T11:42:36.084Z,53.10
2023-03-12T11:43:52.790Z,52.39
2023-03-12T11:45:00.372Z,52.66
2023-03-12T11:46:08.430Z,52.61
2023-03-12T11:47:16.022Z,52.80
2023-03-12T11:48:36.310Z,51.92
2023-03-12T11:49:41.156Z,52.02
2023-03-12T11:50:47.491Z,52.41
2023-03-12T11:52:08.216Z,53.15
2023-03-12T11:53:36.904Z,52.73
2023-03-12T11:54:44.825Z,53.36
2023-03-12T11:55:52.962Z,53.08
2023-03-12T11:56:57.185Z,53.72
2023-03-12T11:58:17.607Z,53.51
2023-03-12T11:59:22.512Z,53.13
2023-03-12T12:00:32.943Z,54.19
2023-03-12T12:01:34.713Z,53.89
2023-03-12T12:02:45.134Z,53.64
2023-03-12T12:03:47.008Z,53.32
2023-03-12T12:04:48.767Z,53.41
2023-03-12T12:06:06.077Z,54.25
2023-03-12T12:07:14.098Z,53.26
2023-03-12T12:08:15.808Z,54.54
2023-03-12T12:09:21.340Z,54.23
2023-03-12T12:10:40.288Z,54.90
2023-03-12T12:11:42.061Z,55.42
2023-03-12T12:12:43.971Z,53.16
2023-03-12T12:14:04.606Z,54.09
2023-03-12T12:15:15.195Z,54.70
2023-03-12T12:16:17.189Z,54.33
2023-03-12T12:17:29.776Z,55.28
2023-03-12T12:18:31.566Z,55.75
2023-03-12T12:20:09.347Z,55.23
2023-03-12T12:21:23.756Z,56.50
2023-03-12T12:22:36.773Z,54.95
2023-03-12T12:23:57.819Z,56.49
2023-03-12T12:24:59.585Z,55.91
2023-03-12T12:26:09.057Z,56.29
2023-03-12T12:27:13.687Z,57.15
2023-03-12T12:28:23.001Z,57.22
2023-03-12T12:29:36.269Z,57.12
2023-03-12T12:30:50.833Z,57.16
2023-03-12T12:31:59.923Z,58.51
2023-03-12T12:33:15.082Z,58.35
2023-03-12T12:34:28.430Z,59.40
2023-03-12T12:35:35.917Z,58.72
2023-03-12T12:36:38.102Z,59.03
2023-03-12T12:37:55.717Z,58.92
2023-03-12T12:39:01.814Z,59.49
2023-03-12T12:40:11.579Z,59.58
2023-03-12T12:41:21.486Z,58.70
2023-03-12T12:42:27.337Z,58.50
2023-03-12T12:43:35.796Z,59.19
2023-03-12T12:44:49.179Z,59.53
2023-03-12T12:45:52.674Z,59.21
2023-03-12T12:46:59.212Z,58.68
2023-03-12T12:48:15.303Z,58.55
2023-03-12T12:49:26.346Z,58.27
2023-03-12T12:50:31.963Z,58.71
2023-03-12T12:51:36.954Z,58.85
2023-03-12T12:52:39.201Z,60.22
2023-03-12T12:53:41.073Z,59.13
2023-03-12T12:54:48.893Z,58.89
2023-03-12T12:56:00.735Z,58.56
2023-03-12T12:57:07.601Z,58.35
2023-03-12T12:58:12.546Z,59.50
2023-03-12T12:59:31.969Z,58.96
2023-03-12T13:00:37.339Z,59.26
2023-03-12T13:01:39.870Z,59.82
2023-03-12T13:02:43.341Z,60.08
2023-03-12T13:03:46.904Z,59.91
2023-03-12T13:04:49.349Z,59.66
2023-03-12T13:05:57.098Z,59.43
2023-03-12T13:06:59.255Z,59.60
2023-03-12T13:08:01.400Z,59.40
2023-03-12T13:09:14.489Z,59.68
2023-03-12T13:10:34.784Z,59.33
2023-03-12T13:11:41.639Z,59.78
2023-03-12T13:12:56.970Z,60.29
2023-03-12T13:13:58.992Z,59.97
2023-03-12T13:15:02.311Z,59.36
2023-03-12T13:16:22.422Z,59.25
2023-03-12T13:17:27.688Z,59.25
2023-03-12T13:18:29.711Z,58.96
2023-03-12T13:19:40.642Z,59.29
2023-03-12T13:20:47.936Z,59.46
2023-03-12T13:21:54.612Z,58.87
2023-03-12T13:23:15.392Z,58.62
2023-03-12T13:24:23.234Z,59.89
2023-03-12T13:25:30.793Z,60.26
2023-03-12T13:26:32.678Z,60.60
2023-03-12T13:27:39.507Z,61.23
2023-03-12T13:28:56.959Z,61.97
2023-03-12T13:30:21.572Z,61.97
2023-03-12T13:31:29.528Z,61.76
2023-03-12T13:32:39.260Z,62.05
2023-03-12T13:33:46.847Z,62.55
2023-03-12T13:34:49.176Z,62.66
2023-03-12T13:36:14.895Z,63.40
2023-03-12T13:37:22.124Z,64.52
2023-03-12T13:38:53.470Z,64.40
2023-03-12T13:39:55.489Z,64.73
2023-03-12T13:41:03.544Z,65.26
2023-03-12T13:42:23.769Z,64.64
2023-03-12T13:43:34.352Z,65.14
2023-03-12T13:44:40.421Z,65.53
2023-03-12T13:45:47.974Z,66.16
2023-03-12T13:46:57.805Z,66.30
2023-03-12T13:48:01.969Z,66.66
2023-03-12T13:49:05.713Z,67.04